sensor_id;sensor_type;location;lat;lon;timestamp;P1;durP1;ratioP1;P2;durP2;ratioP2
67156;SDS011;54086;50.126;8.710;2024-01-15T00:00:52;33.45;;;11.85;;
67156;SDS011;54086;50.126;8.710;2024-01-15T00:03:21;31.17;;;11.60;;
67156;SDS011;54086;50.126;8.710;2024-01-15T00:05:47;31.07;;;11.23;;
67156;SDS011;54086;50.126;8.710;2024-01-15T00:08:14;27.73;;;9.63;;
67156;SDS011;54086;50.126;8.710;2024-01-15T00:10:40;25.00;;;9.50;;
67156;SDS011;54086;50.126;8.710;2024-01-15T00:13:07;27.77;;;9.85;;
67156;SDS011;54086;50.126;8.710;2024-01-15T00:15:33;25.38;;;9.82;;
67156;SDS011;54086;50.126;8.710;2024-01-15T00:17:58;26.47;;;10.67;;
67156;SDS011;54086;50.126;8.710;2024-01-15T00:20:24;27.40;;;10.73;;
67156;SDS011;54086;50.126;8.710;2024-01-15T00:22:49;31.77;;;11.00;;
67156;SDS011;54086;50.126;8.710;2024-01-15T00:25:14;29.67;;;10.10;;
67156;SDS011;54086;50.126;8.710;2024-01-15T00:27:40;31.47;;;10.57;;
67156;SDS011;54086;50.126;8.710;2024-01-15T00:30:05;30.07;;;10.70;;
67156;SDS011;54086;50.126;8.710;2024-01-15T00:32:32;25.73;;;10.40;;
67156;SDS011;54086;50.126;8.710;2024-01-15T00:34:57;29.43;;;10.10;;
67156;SDS011;54086;50.126;8.710;2024-01-15T00:37:23;26.90;;;10.03;;
67156;SDS011;54086;50.126;8.710;2024-01-15T00:39:51;34.10;;;10.87;;
67156;SDS011;54086;50.126;8.710;2024-01-15T00:42:20;29.23;;;10.48;;
67156;SDS011;54086;50.126;8.710;2024-01-15T00:44:46;27.60;;;10.50;;
67156;SDS011;54086;50.126;8.710;2024-01-15T00:47:13;28.73;;;10.70;;
67156;SDS011;54086;50.126;8.710;2024-01-15T00:49:39;25.92;;;8.95;;
67156;SDS011;54086;50.126;8.710;2024-01-15T00:52:04;27.13;;;10.00;;
67156;SDS011;54086;50.126;8.710;2024-01-15T00:54:33;27.33;;;10.88;;
67156;SDS011;54086;50.126;8.710;2024-01-15T00:56:58;24.57;;;9.70;;
67156;SDS011;54086;50.126;8.710;2024-01-15T00:59:26;25.37;;;8.93;;
67156;SDS011;54086;50.126;8.710;2024-01-15T01:01:52;27.57;;;9.77;;
67156;SDS011;54086;50.126;8.710;2024-01-15T01:04:21;31.87;;;9.60;;
67156;SDS011;54086;50.126;8.710;2024-01-15T01:06:46;21.50;;;7.70;;
67156;SDS011;54086;50.126;8.710;2024-01-15T01:09:13;23.88;;;8.95;;
67156;SDS011;54086;50.126;8.710;2024-01-15T01:11:39;28.07;;;10.53;;
67156;SDS011;54086;50.126;8.710;2024-01-15T01:14:04;29.92;;;8.93;;
67156;SDS011;54086;50.126;8.710;2024-01-15T01:16:30;25.70;;;8.07;;
67156;SDS011;54086;50.126;8.710;2024-01-15T01:18:56;24.75;;;9.95;;
67156;SDS011;54086;50.126;8.710;2024-01-15T01:21:22;30.53;;;10.17;;
67156;SDS011;54086;50.126;8.710;2024-01-15T01:23:47;26.65;;;8.77;;
67156;SDS011;54086;50.126;8.710;2024-01-15T01:26:16;21.10;;;8.30;;
67156;SDS011;54086;50.126;8.710;2024-01-15T01:28:42;23.15;;;8.52;;
67156;SDS011;54086;50.126;8.710;2024-01-15T01:31:08;26.33;;;10.17;;
67156;SDS011;54086;50.126;8.710;2024-01-15T01:33:33;24.50;;;10.07;;
67156;SDS011;54086;50.126;8.710;2024-01-15T01:35:59;28.10;;;9.57;;
67156;SDS011;54086;50.126;8.710;2024-01-15T01:38:24;25.50;;;8.97;;
67156;SDS011;54086;50.126;8.710;2024-01-15T01:40:50;24.27;;;9.27;;
67156;SDS011;54086;50.126;8.710;2024-01-15T01:43:15;24.77;;;8.70;;
67156;SDS011;54086;50.126;8.710;2024-01-15T01:45:40;28.60;;;10.30;;
67156;SDS011;54086;50.126;8.710;2024-01-15T01:48:06;26.73;;;9.18;;
67156;SDS011;54086;50.126;8.710;2024-01-15T01:50:32;29.00;;;10.27;;
67156;SDS011;54086;50.126;8.710;2024-01-15T01:52:58;26.33;;;8.88;;
67156;SDS011;54086;50.126;8.710;2024-01-15T01:55:26;30.65;;;10.68;;
67156;SDS011;54086;50.126;8.710;2024-01-15T01:57:52;28.05;;;9.38;;
67156;SDS011;54086;50.126;8.710;2024-01-15T02:00:19;30.60;;;10.50;;
67156;SDS011;54086;50.126;8.710;2024-01-15T02:02:45;20.97;;;7.80;;
67156;SDS011;54086;50.126;8.710;2024-01-15T02:05:10;30.97;;;9.60;;
67156;SDS011;54086;50.126;8.710;2024-01-15T02:07:39;28.58;;;10.23;;
67156;SDS011;54086;50.126;8.710;2024-01-15T02:10:06;25.63;;;9.35;;
67156;SDS011;54086;50.126;8.710;2024-01-15T02:12:31;26.33;;;9.70;;
67156;SDS011;54086;50.126;8.710;2024-01-15T02:14:57;29.67;;;9.38;;
67156;SDS011;54086;50.126;8.710;2024-01-15T02:17:22;32.50;;;9.90;;
67156;SDS011;54086;50.126;8.710;2024-01-15T02:19:49;26.87;;;9.27;;
67156;SDS011;54086;50.126;8.710;2024-01-15T02:22:15;24.90;;;8.77;;
67156;SDS011;54086;50.126;8.710;2024-01-15T02:24:41;27.70;;;9.95;;
67156;SDS011;54086;50.126;8.710;2024-01-15T02:27:06;22.23;;;8.00;;
67156;SDS011;54086;50.126;8.710;2024-01-15T02:29:32;23.77;;;8.07;;
67156;SDS011;54086;50.126;8.710;2024-01-15T02:31:58;29.73;;;9.45;;
67156;SDS011;54086;50.126;8.710;2024-01-15T02:34:23;26.93;;;8.67;;
67156;SDS011;54086;50.126;8.710;2024-01-15T02:36:49;22.03;;;7.97;;
67156;SDS011;54086;50.126;8.710;2024-01-15T02:39:15;22.98;;;7.68;;
67156;SDS011;54086;50.126;8.710;2024-01-15T02:41:40;24.00;;;8.10;;
67156;SDS011;54086;50.126;8.710;2024-01-15T02:44:06;19.63;;;7.87;;
67156;SDS011;54086;50.126;8.710;2024-01-15T02:46:31;25.07;;;9.33;;
67156;SDS011;54086;50.126;8.710;2024-01-15T02:48:57;26.63;;;10.00;;
67156;SDS011;54086;50.126;8.710;2024-01-15T02:51:22;21.77;;;7.03;;
67156;SDS011;54086;50.126;8.710;2024-01-15T02:53:48;26.70;;;9.67;;
67156;SDS011;54086;50.126;8.710;2024-01-15T02:56:15;23.93;;;8.73;;
67156;SDS011;54086;50.126;8.710;2024-01-15T02:58:40;24.02;;;9.52;;
67156;SDS011;54086;50.126;8.710;2024-01-15T03:01:06;22.03;;;8.03;;
67156;SDS011;54086;50.126;8.710;2024-01-15T03:03:31;26.23;;;8.90;;
67156;SDS011;54086;50.126;8.710;2024-01-15T03:05:58;26.38;;;8.73;;
67156;SDS011;54086;50.126;8.710;2024-01-15T03:08:23;27.10;;;9.17;;
67156;SDS011;54086;50.126;8.710;2024-01-15T03:10:49;27.65;;;9.27;;
67156;SDS011;54086;50.126;8.710;2024-01-15T03:13:14;26.33;;;9.00;;
67156;SDS011;54086;50.126;8.710;2024-01-15T03:15:40;27.13;;;9.33;;
67156;SDS011;54086;50.126;8.710;2024-01-15T03:18:05;25.37;;;9.10;;
67156;SDS011;54086;50.126;8.710;2024-01-15T03:20:31;26.92;;;9.27;;
67156;SDS011;54086;50.126;8.710;2024-01-15T03:22:56;22.37;;;8.07;;
67156;SDS011;54086;50.126;8.710;2024-01-15T03:25:22;25.53;;;8.83;;
67156;SDS011;54086;50.126;8.710;2024-01-15T03:27:47;22.08;;;8.93;;
67156;SDS011;54086;50.126;8.710;2024-01-15T03:30:13;28.83;;;9.13;;
67156;SDS011;54086;50.126;8.710;2024-01-15T03:32:38;24.07;;;9.40;;
67156;SDS011;54086;50.126;8.710;2024-01-15T03:35:04;27.27;;;9.27;;
67156;SDS011;54086;50.126;8.710;2024-01-15T03:37:30;26.92;;;10.48;;
67156;SDS011;54086;50.126;8.710;2024-01-15T03:39:55;22.87;;;8.73;;
67156;SDS011;54086;50.126;8.710;2024-01-15T03:42:21;29.27;;;9.90;;
67156;SDS011;54086;50.126;8.710;2024-01-15T03:44:47;23.57;;;9.17;;
67156;SDS011;54086;50.126;8.710;2024-01-15T03:47:12;26.17;;;8.80;;
67156;SDS011;54086;50.126;8.710;2024-01-15T03:49:38;25.65;;;8.45;;
67156;SDS011;54086;50.126;8.710;2024-01-15T03:52:03;21.43;;;6.97;;
67156;SDS011;54086;50.126;8.710;2024-01-15T03:54:29;17.45;;;6.50;;
67156;SDS011;54086;50.126;8.710;2024-01-15T03:56:55;26.27;;;9.23;;
67156;SDS011;54086;50.126;8.710;2024-01-15T03:59:20;23.90;;;8.47;;
67156;SDS011;54086;50.126;8.710;2024-01-15T04:01:49;26.13;;;8.53;;
67156;SDS011;54086;50.126;8.710;2024-01-15T04:04:16;22.27;;;9.45;;
67156;SDS011;54086;50.126;8.710;2024-01-15T04:06:42;28.13;;;9.68;;
67156;SDS011;54086;50.126;8.710;2024-01-15T04:09:07;23.80;;;8.57;;
67156;SDS011;54086;50.126;8.710;2024-01-15T04:11:33;23.43;;;7.63;;
67156;SDS011;54086;50.126;8.710;2024-01-15T04:13:58;27.92;;;8.45;;
67156;SDS011;54086;50.126;8.710;2024-01-15T04:16:23;25.00;;;8.60;;
67156;SDS011;54086;50.126;8.710;2024-01-15T04:18:49;26.10;;;8.10;;
67156;SDS011;54086;50.126;8.710;2024-01-15T04:21:16;31.67;;;8.43;;
67156;SDS011;54086;50.126;8.710;2024-01-15T04:23:42;27.52;;;9.25;;
67156;SDS011;54086;50.126;8.710;2024-01-15T04:26:08;20.27;;;7.88;;
67156;SDS011;54086;50.126;8.710;2024-01-15T04:28:33;24.20;;;7.60;;
67156;SDS011;54086;50.126;8.710;2024-01-15T04:30:59;21.57;;;8.00;;
67156;SDS011;54086;50.126;8.710;2024-01-15T04:33:24;25.97;;;8.00;;
67156;SDS011;54086;50.126;8.710;2024-01-15T04:35:49;20.73;;;7.07;;
67156;SDS011;54086;50.126;8.710;2024-01-15T04:38:15;20.58;;;7.50;;
67156;SDS011;54086;50.126;8.710;2024-01-15T04:40:40;21.50;;;7.27;;
67156;SDS011;54086;50.126;8.710;2024-01-15T04:43:06;23.47;;;8.13;;
67156;SDS011;54086;50.126;8.710;2024-01-15T04:45:31;22.40;;;8.50;;
67156;SDS011;54086;50.126;8.710;2024-01-15T04:47:57;21.15;;;7.70;;
67156;SDS011;54086;50.126;8.710;2024-01-15T04:50:22;19.23;;;7.63;;
67156;SDS011;54086;50.126;8.710;2024-01-15T04:52:48;21.58;;;7.65;;
67156;SDS011;54086;50.126;8.710;2024-01-15T04:55:14;20.50;;;7.07;;
67156;SDS011;54086;50.126;8.710;2024-01-15T04:57:40;25.77;;;7.82;;
67156;SDS011;54086;50.126;8.710;2024-01-15T05:00:06;19.70;;;6.97;;
67156;SDS011;54086;50.126;8.710;2024-01-15T05:02:32;25.05;;;7.72;;
67156;SDS011;54086;50.126;8.710;2024-01-15T05:04:57;35.53;;;8.48;;
67156;SDS011;54086;50.126;8.710;2024-01-15T05:07:23;22.73;;;8.10;;
67156;SDS011;54086;50.126;8.710;2024-01-15T05:09:48;23.70;;;8.20;;
67156;SDS011;54086;50.126;8.710;2024-01-15T05:12:14;24.07;;;9.10;;
67156;SDS011;54086;50.126;8.710;2024-01-15T05:14:39;21.77;;;7.33;;
67156;SDS011;54086;50.126;8.710;2024-01-15T05:17:04;24.07;;;9.00;;
67156;SDS011;54086;50.126;8.710;2024-01-15T05:19:30;27.13;;;9.57;;
67156;SDS011;54086;50.126;8.710;2024-01-15T05:21:55;23.13;;;8.40;;
67156;SDS011;54086;50.126;8.710;2024-01-15T05:24:21;26.50;;;9.57;;
67156;SDS011;54086;50.126;8.710;2024-01-15T05:26:46;24.53;;;8.97;;
67156;SDS011;54086;50.126;8.710;2024-01-15T05:29:12;26.93;;;10.23;;
67156;SDS011;54086;50.126;8.710;2024-01-15T05:31:37;25.98;;;9.07;;
67156;SDS011;54086;50.126;8.710;2024-01-15T05:34:03;24.87;;;8.03;;
67156;SDS011;54086;50.126;8.710;2024-01-15T05:36:28;26.53;;;9.17;;
67156;SDS011;54086;50.126;8.710;2024-01-15T05:38:54;23.63;;;8.67;;
67156;SDS011;54086;50.126;8.710;2024-01-15T05:41:19;25.73;;;9.25;;
67156;SDS011;54086;50.126;8.710;2024-01-15T05:43:45;23.30;;;7.77;;
67156;SDS011;54086;50.126;8.710;2024-01-15T05:46:10;22.90;;;9.20;;
67156;SDS011;54086;50.126;8.710;2024-01-15T05:48:35;23.40;;;8.80;;
67156;SDS011;54086;50.126;8.710;2024-01-15T05:51:01;32.73;;;9.87;;
67156;SDS011;54086;50.126;8.710;2024-01-15T05:53:27;24.40;;;8.23;;
67156;SDS011;54086;50.126;8.710;2024-01-15T05:55:52;24.07;;;7.70;;
67156;SDS011;54086;50.126;8.710;2024-01-15T05:58:19;25.42;;;9.13;;
67156;SDS011;54086;50.126;8.710;2024-01-15T06:00:44;20.93;;;7.07;;
67156;SDS011;54086;50.126;8.710;2024-01-15T06:03:11;26.65;;;9.70;;
67156;SDS011;54086;50.126;8.710;2024-01-15T06:05:36;28.60;;;9.60;;
67156;SDS011;54086;50.126;8.710;2024-01-15T06:08:02;25.50;;;9.60;;
67156;SDS011;54086;50.126;8.710;2024-01-15T06:10:27;23.63;;;8.77;;
67156;SDS011;54086;50.126;8.710;2024-01-15T06:12:53;27.07;;;9.20;;
67156;SDS011;54086;50.126;8.710;2024-01-15T06:15:20;25.38;;;9.18;;
67156;SDS011;54086;50.126;8.710;2024-01-15T06:17:45;27.20;;;8.93;;
67156;SDS011;54086;50.126;8.710;2024-01-15T06:20:11;25.43;;;8.90;;
67156;SDS011;54086;50.126;8.710;2024-01-15T06:22:37;20.38;;;7.47;;
67156;SDS011;54086;50.126;8.710;2024-01-15T06:25:07;29.38;;;8.75;;
67156;SDS011;54086;50.126;8.710;2024-01-15T06:27:33;24.95;;;8.82;;
67156;SDS011;54086;50.126;8.710;2024-01-15T06:29:59;26.33;;;9.97;;
67156;SDS011;54086;50.126;8.710;2024-01-15T06:32:25;28.85;;;8.98;;
67156;SDS011;54086;50.126;8.710;2024-01-15T06:34:50;30.20;;;9.20;;
67156;SDS011;54086;50.126;8.710;2024-01-15T06:37:16;25.07;;;9.10;;
67156;SDS011;54086;50.126;8.710;2024-01-15T06:39:45;26.55;;;9.35;;
67156;SDS011;54086;50.126;8.710;2024-01-15T06:42:11;26.73;;;9.57;;
67156;SDS011;54086;50.126;8.710;2024-01-15T06:44:36;32.67;;;10.73;;
67156;SDS011;54086;50.126;8.710;2024-01-15T06:47:02;26.27;;;9.57;;
67156;SDS011;54086;50.126;8.710;2024-01-15T06:49:29;28.40;;;9.60;;
67156;SDS011;54086;50.126;8.710;2024-01-15T06:51:55;26.10;;;9.35;;
67156;SDS011;54086;50.126;8.710;2024-01-15T06:54:24;26.17;;;9.82;;
67156;SDS011;54086;50.126;8.710;2024-01-15T06:56:53;24.90;;;9.80;;
67156;SDS011;54086;50.126;8.710;2024-01-15T06:59:18;26.83;;;9.63;;
67156;SDS011;54086;50.126;8.710;2024-01-15T07:01:44;29.63;;;10.65;;
67156;SDS011;54086;50.126;8.710;2024-01-15T07:04:12;27.63;;;10.70;;
67156;SDS011;54086;50.126;8.710;2024-01-15T07:06:38;26.77;;;10.65;;
67156;SDS011;54086;50.126;8.710;2024-01-15T07:09:04;23.38;;;8.77;;
67156;SDS011;54086;50.126;8.710;2024-01-15T07:11:30;26.33;;;9.07;;
67156;SDS011;54086;50.126;8.710;2024-01-15T07:13:56;26.17;;;8.60;;
67156;SDS011;54086;50.126;8.710;2024-01-15T07:16:21;28.97;;;10.73;;
67156;SDS011;54086;50.126;8.710;2024-01-15T07:18:47;25.17;;;8.67;;
67156;SDS011;54086;50.126;8.710;2024-01-15T07:21:12;28.17;;;10.70;;
67156;SDS011;54086;50.126;8.710;2024-01-15T07:23:38;21.23;;;8.27;;
67156;SDS011;54086;50.126;8.710;2024-01-15T07:26:04;28.80;;;10.13;;
67156;SDS011;54086;50.126;8.710;2024-01-15T07:28:30;25.73;;;9.37;;
67156;SDS011;54086;50.126;8.710;2024-01-15T07:30:55;25.95;;;8.73;;
67156;SDS011;54086;50.126;8.710;2024-01-15T07:33:31;21.23;;;8.60;;
67156;SDS011;54086;50.126;8.710;2024-01-15T07:35:56;28.38;;;9.75;;
67156;SDS011;54086;50.126;8.710;2024-01-15T07:38:23;28.93;;;10.50;;
67156;SDS011;54086;50.126;8.710;2024-01-15T07:40:48;26.17;;;10.25;;
67156;SDS011;54086;50.126;8.710;2024-01-15T07:43:15;27.17;;;9.17;;
67156;SDS011;54086;50.126;8.710;2024-01-15T07:45:41;20.70;;;7.85;;
67156;SDS011;54086;50.126;8.710;2024-01-15T07:48:07;22.77;;;9.67;;
67156;SDS011;54086;50.126;8.710;2024-01-15T07:50:32;23.83;;;8.77;;
67156;SDS011;54086;50.126;8.710;2024-01-15T07:52:58;23.65;;;8.18;;
67156;SDS011;54086;50.126;8.710;2024-01-15T07:55:23;22.88;;;8.20;;
67156;SDS011;54086;50.126;8.710;2024-01-15T07:57:49;24.83;;;9.27;;
67156;SDS011;54086;50.126;8.710;2024-01-15T08:00:15;19.63;;;8.07;;
67156;SDS011;54086;50.126;8.710;2024-01-15T08:02:41;27.17;;;9.00;;
67156;SDS011;54086;50.126;8.710;2024-01-15T08:05:07;25.08;;;9.10;;
67156;SDS011;54086;50.126;8.710;2024-01-15T08:07:32;26.07;;;9.30;;
67156;SDS011;54086;50.126;8.710;2024-01-15T08:09:58;23.33;;;8.20;;
67156;SDS011;54086;50.126;8.710;2024-01-15T08:12:23;23.50;;;8.67;;
67156;SDS011;54086;50.126;8.710;2024-01-15T08:14:49;24.03;;;9.87;;
67156;SDS011;54086;50.126;8.710;2024-01-15T08:17:17;25.77;;;8.70;;
67156;SDS011;54086;50.126;8.710;2024-01-15T08:19:43;28.48;;;10.57;;
67156;SDS011;54086;50.126;8.710;2024-01-15T08:22:09;26.98;;;9.05;;
67156;SDS011;54086;50.126;8.710;2024-01-15T08:24:35;26.40;;;11.13;;
67156;SDS011;54086;50.126;8.710;2024-01-15T08:27:00;26.43;;;9.03;;
67156;SDS011;54086;50.126;8.710;2024-01-15T08:29:26;29.97;;;10.23;;
67156;SDS011;54086;50.126;8.710;2024-01-15T08:31:51;27.83;;;9.73;;
67156;SDS011;54086;50.126;8.710;2024-01-15T08:34:17;28.50;;;9.48;;
67156;SDS011;54086;50.126;8.710;2024-01-15T08:36:43;28.83;;;8.98;;
67156;SDS011;54086;50.126;8.710;2024-01-15T08:39:08;25.13;;;10.37;;
67156;SDS011;54086;50.126;8.710;2024-01-15T08:41:34;25.77;;;9.73;;
67156;SDS011;54086;50.126;8.710;2024-01-15T08:44:00;29.35;;;9.52;;
67156;SDS011;54086;50.126;8.710;2024-01-15T08:46:27;28.63;;;10.13;;
67156;SDS011;54086;50.126;8.710;2024-01-15T08:48:53;29.63;;;10.30;;
67156;SDS011;54086;50.126;8.710;2024-01-15T08:51:21;25.98;;;9.60;;
67156;SDS011;54086;50.126;8.710;2024-01-15T08:53:47;28.75;;;9.85;;
67156;SDS011;54086;50.126;8.710;2024-01-15T08:56:12;24.73;;;9.70;;
67156;SDS011;54086;50.126;8.710;2024-01-15T08:58:38;27.37;;;10.10;;
67156;SDS011;54086;50.126;8.710;2024-01-15T09:01:03;25.10;;;9.23;;
67156;SDS011;54086;50.126;8.710;2024-01-15T09:03:29;26.63;;;10.05;;
67156;SDS011;54086;50.126;8.710;2024-01-15T09:05:55;26.73;;;9.93;;
67156;SDS011;54086;50.126;8.710;2024-01-15T09:08:20;24.77;;;9.13;;
67156;SDS011;54086;50.126;8.710;2024-01-15T09:10:46;24.00;;;9.00;;
67156;SDS011;54086;50.126;8.710;2024-01-15T09:13:11;22.53;;;8.63;;
67156;SDS011;54086;50.126;8.710;2024-01-15T09:15:36;24.80;;;9.00;;
67156;SDS011;54086;50.126;8.710;2024-01-15T09:18:02;25.43;;;9.37;;
67156;SDS011;54086;50.126;8.710;2024-01-15T09:20:27;24.70;;;9.45;;
67156;SDS011;54086;50.126;8.710;2024-01-15T09:22:53;19.90;;;7.40;;
67156;SDS011;54086;50.126;8.710;2024-01-15T09:25:19;27.80;;;10.53;;
67156;SDS011;54086;50.126;8.710;2024-01-15T09:27:44;26.33;;;9.33;;
67156;SDS011;54086;50.126;8.710;2024-01-15T09:30:10;25.67;;;8.77;;
67156;SDS011;54086;50.126;8.710;2024-01-15T09:32:36;23.42;;;9.25;;
67156;SDS011;54086;50.126;8.710;2024-01-15T09:35:02;26.30;;;10.37;;
67156;SDS011;54086;50.126;8.710;2024-01-15T09:37:27;19.67;;;7.67;;
67156;SDS011;54086;50.126;8.710;2024-01-15T09:39:54;22.65;;;8.98;;
67156;SDS011;54086;50.126;8.710;2024-01-15T09:42:21;19.02;;;7.32;;
67156;SDS011;54086;50.126;8.710;2024-01-15T09:44:48;21.52;;;7.68;;
67156;SDS011;54086;50.126;8.710;2024-01-15T09:47:14;22.70;;;8.20;;
67156;SDS011;54086;50.126;8.710;2024-01-15T09:49:41;19.30;;;7.65;;
67156;SDS011;54086;50.126;8.710;2024-01-15T09:52:07;20.25;;;7.82;;
67156;SDS011;54086;50.126;8.710;2024-01-15T09:54:35;18.67;;;7.33;;
67156;SDS011;54086;50.126;8.710;2024-01-15T09:57:02;19.23;;;7.60;;
67156;SDS011;54086;50.126;8.710;2024-01-15T09:59:28;19.70;;;7.45;;
67156;SDS011;54086;50.126;8.710;2024-01-15T10:01:54;18.23;;;7.35;;
67156;SDS011;54086;50.126;8.710;2024-01-15T10:04:22;22.27;;;8.18;;
67156;SDS011;54086;50.126;8.710;2024-01-15T10:06:49;20.60;;;7.67;;
67156;SDS011;54086;50.126;8.710;2024-01-15T10:09:16;19.45;;;7.43;;
67156;SDS011;54086;50.126;8.710;2024-01-15T10:11:43;18.25;;;7.60;;
67156;SDS011;54086;50.126;8.710;2024-01-15T10:14:09;19.15;;;7.65;;
67156;SDS011;54086;50.126;8.710;2024-01-15T10:16:38;19.90;;;7.68;;
67156;SDS011;54086;50.126;8.710;2024-01-15T10:19:04;21.63;;;8.67;;
67156;SDS011;54086;50.126;8.710;2024-01-15T10:21:31;20.00;;;8.15;;
67156;SDS011;54086;50.126;8.710;2024-01-15T10:23:59;21.10;;;7.68;;
67156;SDS011;54086;50.126;8.710;2024-01-15T10:26:26;20.52;;;7.85;;
67156;SDS011;54086;50.126;8.710;2024-01-15T10:28:51;20.40;;;7.77;;
67156;SDS011;54086;50.126;8.710;2024-01-15T10:31:17;20.42;;;7.95;;
67156;SDS011;54086;50.126;8.710;2024-01-15T10:33:44;19.98;;;8.30;;
67156;SDS011;54086;50.126;8.710;2024-01-15T10:36:10;19.97;;;8.00;;
67156;SDS011;54086;50.126;8.710;2024-01-15T10:38:36;19.25;;;7.78;;
67156;SDS011;54086;50.126;8.710;2024-01-15T10:41:02;19.83;;;7.68;;
67156;SDS011;54086;50.126;8.710;2024-01-15T10:43:29;20.40;;;7.87;;
67156;SDS011;54086;50.126;8.710;2024-01-15T10:45:54;20.58;;;7.75;;
67156;SDS011;54086;50.126;8.710;2024-01-15T10:48:20;20.73;;;7.90;;
67156;SDS011;54086;50.126;8.710;2024-01-15T10:50:46;17.30;;;7.43;;
67156;SDS011;54086;50.126;8.710;2024-01-15T10:53:13;20.40;;;8.48;;
67156;SDS011;54086;50.126;8.710;2024-01-15T10:55:41;19.33;;;8.45;;
67156;SDS011;54086;50.126;8.710;2024-01-15T10:58:07;20.17;;;8.60;;
67156;SDS011;54086;50.126;8.710;2024-01-15T11:00:34;17.80;;;8.13;;
67156;SDS011;54086;50.126;8.710;2024-01-15T11:03:02;22.20;;;8.20;;
67156;SDS011;54086;50.126;8.710;2024-01-15T11:05:33;18.95;;;7.07;;
67156;SDS011;54086;50.126;8.710;2024-01-15T11:08:05;19.20;;;8.02;;
67156;SDS011;54086;50.126;8.710;2024-01-15T11:10:42;17.10;;;7.18;;
67156;SDS011;54086;50.126;8.710;2024-01-15T11:16:01;15.82;;;5.70;;
67156;SDS011;54086;50.126;8.710;2024-01-15T11:18:28;20.52;;;7.47;;
67156;SDS011;54086;50.126;8.710;2024-01-15T11:23:45;15.90;;;7.35;;
67156;SDS011;54086;50.126;8.710;2024-01-15T11:26:34;16.83;;;7.57;;
67156;SDS011;54086;50.126;8.710;2024-01-15T11:29:05;22.63;;;8.82;;
67156;SDS011;54086;50.126;8.710;2024-01-15T11:34:04;20.02;;;8.35;;
67156;SDS011;54086;50.126;8.710;2024-01-15T11:41:51;17.60;;;7.82;;
67156;SDS011;54086;50.126;8.710;2024-01-15T11:44:19;18.75;;;8.30;;
67156;SDS011;54086;50.126;8.710;2024-01-15T11:46:46;16.40;;;6.73;;
67156;SDS011;54086;50.126;8.710;2024-01-15T11:52:12;17.35;;;7.07;;
67156;SDS011;54086;50.126;8.710;2024-01-15T11:54:41;17.33;;;7.22;;
67156;SDS011;54086;50.126;8.710;2024-01-15T11:57:18;17.00;;;7.55;;
67156;SDS011;54086;50.126;8.710;2024-01-15T11:59:49;19.00;;;7.85;;
67156;SDS011;54086;50.126;8.710;2024-01-15T12:02:14;18.73;;;8.07;;
67156;SDS011;54086;50.126;8.710;2024-01-15T12:04:40;16.77;;;7.77;;
67156;SDS011;54086;50.126;8.710;2024-01-15T12:07:05;17.70;;;7.87;;
67156;SDS011;54086;50.126;8.710;2024-01-15T12:09:31;16.77;;;7.43;;
67156;SDS011;54086;50.126;8.710;2024-01-15T12:12:03;16.63;;;7.27;;
67156;SDS011;54086;50.126;8.710;2024-01-15T12:14:36;16.88;;;7.78;;
67156;SDS011;54086;50.126;8.710;2024-01-15T12:17:03;17.10;;;7.53;;
67156;SDS011;54086;50.126;8.710;2024-01-15T12:19:28;16.87;;;6.80;;
67156;SDS011;54086;50.126;8.710;2024-01-15T12:21:54;18.43;;;7.23;;
67156;SDS011;54086;50.126;8.710;2024-01-15T12:24:20;16.30;;;7.47;;
67156;SDS011;54086;50.126;8.710;2024-01-15T12:26:45;15.43;;;6.33;;
67156;SDS011;54086;50.126;8.710;2024-01-15T12:29:11;16.63;;;6.80;;
67156;SDS011;54086;50.126;8.710;2024-01-15T12:31:36;17.53;;;7.47;;
67156;SDS011;54086;50.126;8.710;2024-01-15T12:34:02;16.63;;;6.83;;
67156;SDS011;54086;50.126;8.710;2024-01-15T12:36:30;15.60;;;6.77;;
67156;SDS011;54086;50.126;8.710;2024-01-15T12:38:59;17.77;;;6.65;;
67156;SDS011;54086;50.126;8.710;2024-01-15T12:41:24;18.42;;;7.43;;
67156;SDS011;54086;50.126;8.710;2024-01-15T12:43:50;16.37;;;7.07;;
67156;SDS011;54086;50.126;8.710;2024-01-15T12:46:16;24.45;;;6.95;;
67156;SDS011;54086;50.126;8.710;2024-01-15T12:48:41;15.17;;;6.67;;
67156;SDS011;54086;50.126;8.710;2024-01-15T12:51:07;16.93;;;7.53;;
67156;SDS011;54086;50.126;8.710;2024-01-15T12:53:33;17.30;;;6.75;;
67156;SDS011;54086;50.126;8.710;2024-01-15T12:55:58;14.67;;;6.40;;
67156;SDS011;54086;50.126;8.710;2024-01-15T12:58:24;17.02;;;6.43;;
67156;SDS011;54086;50.126;8.710;2024-01-15T13:00:49;14.83;;;6.07;;
67156;SDS011;54086;50.126;8.710;2024-01-15T13:03:15;16.30;;;6.87;;
67156;SDS011;54086;50.126;8.710;2024-01-15T13:05:40;14.40;;;5.95;;
67156;SDS011;54086;50.126;8.710;2024-01-15T13:08:06;13.90;;;5.60;;
67156;SDS011;54086;50.126;8.710;2024-01-15T13:10:32;15.50;;;6.72;;
67156;SDS011;54086;50.126;8.710;2024-01-15T13:12:57;20.20;;;6.50;;
67156;SDS011;54086;50.126;8.710;2024-01-15T13:15:23;14.25;;;6.07;;
67156;SDS011;54086;50.126;8.710;2024-01-15T13:17:48;11.67;;;4.97;;
67156;SDS011;54086;50.126;8.710;2024-01-15T13:20:14;14.53;;;5.93;;
67156;SDS011;54086;50.126;8.710;2024-01-15T13:22:39;12.93;;;5.63;;
67156;SDS011;54086;50.126;8.710;2024-01-15T13:25:08;14.47;;;5.87;;
67156;SDS011;54086;50.126;8.710;2024-01-15T13:27:34;11.70;;;5.25;;
67156;SDS011;54086;50.126;8.710;2024-01-15T13:30:03;17.17;;;5.70;;
67156;SDS011;54086;50.126;8.710;2024-01-15T13:32:29;14.43;;;5.45;;
67156;SDS011;54086;50.126;8.710;2024-01-15T13:34:55;13.05;;;5.97;;
67156;SDS011;54086;50.126;8.710;2024-01-15T13:37:21;14.88;;;6.28;;
67156;SDS011;54086;50.126;8.710;2024-01-15T13:39:49;13.02;;;5.22;;
67156;SDS011;54086;50.126;8.710;2024-01-15T13:42:16;12.50;;;4.50;;
67156;SDS011;54086;50.126;8.710;2024-01-15T13:44:42;12.43;;;5.40;;
67156;SDS011;54086;50.126;8.710;2024-01-15T13:47:07;12.70;;;4.93;;
67156;SDS011;54086;50.126;8.710;2024-01-15T13:49:34;12.23;;;4.72;;
67156;SDS011;54086;50.126;8.710;2024-01-15T13:52:00;13.27;;;5.55;;
67156;SDS011;54086;50.126;8.710;2024-01-15T13:54:28;11.47;;;5.30;;
67156;SDS011;54086;50.126;8.710;2024-01-15T13:56:55;12.00;;;4.75;;
67156;SDS011;54086;50.126;8.710;2024-01-15T13:59:20;11.70;;;4.90;;
67156;SDS011;54086;50.126;8.710;2024-01-15T14:01:46;12.30;;;4.67;;
67156;SDS011;54086;50.126;8.710;2024-01-15T14:04:12;11.85;;;5.00;;
67156;SDS011;54086;50.126;8.710;2024-01-15T14:06:38;10.07;;;3.87;;
67156;SDS011;54086;50.126;8.710;2024-01-15T14:09:04;9.40;;;3.75;;
67156;SDS011;54086;50.126;8.710;2024-01-15T14:11:30;10.02;;;4.10;;
67156;SDS011;54086;50.126;8.710;2024-01-15T14:13:56;10.77;;;3.90;;
67156;SDS011;54086;50.126;8.710;2024-01-15T14:16:22;9.53;;;3.53;;
67156;SDS011;54086;50.126;8.710;2024-01-15T14:18:47;10.80;;;3.60;;
67156;SDS011;54086;50.126;8.710;2024-01-15T14:21:13;8.50;;;3.67;;
67156;SDS011;54086;50.126;8.710;2024-01-15T14:23:39;10.65;;;3.22;;
67156;SDS011;54086;50.126;8.710;2024-01-15T14:26:05;10.70;;;3.70;;
67156;SDS011;54086;50.126;8.710;2024-01-15T14:28:30;9.55;;;3.65;;
67156;SDS011;54086;50.126;8.710;2024-01-15T14:30:55;9.80;;;3.63;;
67156;SDS011;54086;50.126;8.710;2024-01-15T14:33:23;9.63;;;3.72;;
67156;SDS011;54086;50.126;8.710;2024-01-15T14:35:49;13.20;;;3.73;;
67156;SDS011;54086;50.126;8.710;2024-01-15T14:38:14;7.53;;;2.57;;
67156;SDS011;54086;50.126;8.710;2024-01-15T14:40:39;7.53;;;3.00;;
67156;SDS011;54086;50.126;8.710;2024-01-15T14:43:05;10.18;;;3.15;;